Tinker Air Force Base
KTIK : now visible

Airfield :











YOU CAN JOIN US ON...

 
LOGIN :

Register | Disclaimer

   EN    FR    IT 

 









Legend :    VFR   Marginal VFR   IFR   Intensive IFR   Very Intensive IFR
Visi :
Ceiling :
>= 8 km
>= 3000ft
5 to 8 km
1000 to 3000 ft
1500m to 5 km
500 to 1000 ft
800 to 1500m
200 to 500 ft
< 800m
< 200 ft
Symbols :   Thunderstorms  Fog  Heavy snow  Heavy precipitations  Wind > 20 kt






- Airport Elevation : 1291 ft


KTIK - Tinker Air Force Base

CURRENT METAR :
  • 021255Z AUTO 18015G22KT 4SM BR OVC003 08/08 A2993 RMK AO2 CIG 002 RWY13 SLP145 T00830082

EXPIRED METARs :
  • 021155Z AUTO 18013KT 4SM BR OVC004 08/08 A2994 RMK AO2 VIS 2 3/4 RWY31 VIS 2 3/4 RWY36 CIG 003 RWY13 SLP148 T00780077 10083 20065 55013
  • 021131Z AUTO 18013KT 4SM BR OVC005 08/08 A2995 RMK AO2 CIG 003 RWY13 CIG 004 RWY31 CIG 004 RWY36 SLP152 $
  • 021116Z AUTO 18013KT 4SM BR OVC006 08/08 A2995 RMK AO2 CIG 003 RWY13 CIG 004 RWY31 CIG 004 RWY36 SLP150 $
  • 021055Z AUTO 18018KT 5SM BR OVC007 08/08 A2996 RMK AO2 PK WND 19027/24 CIG 003 RWY13 SLP154 T00770076 $

TAF AMD TAF KTIK
Valid from the 02 at 13:00 until the 03 at 16:00 UTC


021340Z 0213/0316 18014KT 4800 BR BKN003 WS020/20045KT QNH2991INS
BECMG 0216/0217 20012G20KT 9999 NSW BKN010 520042 QNH2990INS
BECMG 0218/0219 20020G30KT 9999 FEW004 BKN030 520042 QNH2989INS
BECMG 0222/0223 20012KT 9999 FEW012 SCT050 510053 QNH2989INS TX15/0222Z TN07/0309Z
KZFW FIR / North America



MET'MAP, your aeronautical weather chart ! - Copyright ORBIFLY December 2007 - Disclaimer

ORBIFLY MET'MAP TEAM :

Programming & Development : Alexandra Zaïnal
Original concept : Baudouin d'Aumeries
Technical & hardware support : Manuel Goepfert
Assistance : Marc-Olivier Méhu




SOURCES & CREDITS :

   NOAA       Earth
Advisory